createdAt,value
2018-05-31T00:01:24.359Z,3.40
2018-05-31T00:03:52.534Z,3.40
2018-05-31T00:06:21.942Z,3.30
2018-05-31T00:08:49.519Z,4.30
2018-05-31T00:11:17.131Z,3.70
2018-05-31T00:13:44.715Z,3.90
2018-05-31T00:16:12.315Z,3.53
2018-05-31T00:18:39.909Z,3.03
2018-05-31T00:21:07.511Z,3.90
2018-05-31T00:23:35.095Z,3.23
2018-05-31T00:26:02.727Z,3.30
2018-05-31T00:28:30.319Z,4.10
2018-05-31T00:30:57.924Z,4.00
2018-05-31T00:33:25.498Z,3.60
2018-05-31T00:35:53.106Z,4.00
2018-05-31T00:38:20.699Z,2.90
2018-05-31T00:40:49.079Z,3.80
2018-05-31T00:43:17.429Z,3.40
2018-05-31T00:45:45.032Z,3.50
2018-05-31T00:48:12.619Z,3.43
2018-05-31T00:50:40.240Z,4.07
2018-05-31T00:53:08.569Z,3.90
2018-05-31T00:55:47.863Z,3.53
2018-05-31T00:58:15.440Z,4.67
2018-05-31T01:00:43.068Z,4.30
2018-05-31T01:03:10.656Z,4.00
2018-05-31T01:05:38.355Z,4.33
2018-05-31T01:08:05.939Z,4.50
2018-05-31T01:10:33.658Z,4.50
2018-05-31T01:13:01.241Z,4.63
2018-05-31T01:15:28.846Z,5.23
2018-05-31T01:17:56.431Z,4.90
2018-05-31T01:20:24.014Z,5.20
2018-05-31T01:22:51.627Z,5.53
2018-05-31T01:25:20.096Z,4.23
2018-05-31T01:27:47.698Z,5.00
2018-05-31T01:30:15.280Z,4.33
2018-05-31T01:32:42.891Z,4.40
2018-05-31T01:35:10.476Z,4.53
2018-05-31T01:37:38.082Z,4.10
2018-05-31T01:40:05.720Z,3.80
2018-05-31T01:42:33.334Z,4.17
2018-05-31T01:45:00.925Z,4.03
2018-05-31T01:47:28.536Z,3.87
2018-05-31T01:49:56.879Z,4.00
2018-05-31T01:52:24.495Z,5.00
2018-05-31T01:54:52.073Z,3.70
2018-05-31T01:57:19.681Z,3.90
2018-05-31T01:59:47.255Z,3.60
2018-05-31T02:02:14.967Z,4.00
2018-05-31T02:04:43.948Z,4.20
2018-05-31T02:07:12.327Z,3.60
2018-05-31T02:09:39.895Z,3.73
2018-05-31T02:12:07.503Z,4.03
2018-05-31T02:14:35.850Z,4.20
2018-05-31T02:17:03.466Z,3.80
2018-05-31T02:19:31.039Z,3.93
2018-05-31T02:21:58.645Z,3.77
2018-05-31T02:24:26.995Z,4.83
2018-05-31T02:26:56.119Z,4.77
2018-05-31T02:29:24.481Z,4.30
2018-05-31T02:31:52.068Z,4.07
2018-05-31T02:34:20.436Z,3.87
2018-05-31T02:36:48.016Z,4.00
2018-05-31T02:39:15.612Z,3.80
2018-05-31T02:41:43.199Z,4.40
2018-05-31T02:44:10.811Z,4.47
2018-05-31T02:46:38.387Z,3.90
2018-05-31T02:49:05.985Z,4.27
2018-05-31T02:51:33.555Z,4.37
2018-05-31T02:54:01.155Z,4.00
2018-05-31T02:56:29.487Z,4.43
2018-05-31T02:58:57.093Z,3.97
2018-05-31T03:01:24.666Z,5.10
2018-05-31T03:03:52.279Z,4.60
2018-05-31T03:06:20.619Z,4.23
2018-05-31T03:08:48.228Z,3.47
2018-05-31T03:11:15.816Z,4.13
2018-05-31T03:13:43.412Z,3.57
2018-05-31T03:16:10.981Z,3.70
2018-05-31T03:18:39.351Z,3.87
2018-05-31T03:21:06.944Z,3.43
2018-05-31T03:23:34.549Z,3.80
2018-05-31T03:26:02.131Z,4.17
2018-05-31T03:28:30.499Z,4.00
2018-05-31T03:30:58.084Z,4.40
2018-05-31T03:33:25.695Z,3.80
2018-05-31T03:35:53.278Z,3.73
2018-05-31T03:38:20.866Z,3.90
2018-05-31T03:40:48.487Z,4.10
2018-05-31T03:43:16.060Z,3.30
2018-05-31T03:45:43.672Z,3.47
2018-05-31T03:48:11.265Z,3.63
2018-05-31T03:50:38.866Z,3.93
2018-05-31T03:53:07.231Z,4.20
2018-05-31T03:55:35.612Z,4.30
2018-05-31T03:58:03.962Z,3.23
2018-05-31T04:00:31.587Z,3.80
2018-05-31T04:02:59.170Z,3.80
2018-05-31T04:05:26.871Z,3.40
2018-05-31T04:07:55.221Z,4.27
2018-05-31T04:10:22.840Z,6.90
2018-05-31T04:12:50.426Z,6.03
2018-05-31T04:15:19.703Z,4.23
2018-05-31T04:17:47.284Z,4.50
2018-05-31T04:20:14.894Z,4.80
2018-05-31T04:22:43.239Z,5.77
2018-05-31T04:25:10.843Z,5.10
2018-05-31T04:27:38.462Z,6.97
2018-05-31T04:30:06.059Z,4.03
2018-05-31T04:32:33.626Z,6.27
2018-05-31T04:35:01.236Z,4.10
2018-05-31T04:37:28.807Z,2.90
2018-05-31T04:39:57.191Z,17.30
2018-05-31T04:42:24.827Z,6.07
2018-05-31T04:44:52.392Z,5.40
2018-05-31T04:47:19.980Z,5.73
2018-05-31T04:49:47.591Z,3.97
2018-05-31T04:52:15.178Z,4.90
2018-05-31T04:54:42.754Z,3.40
2018-05-31T04:57:10.350Z,3.70
2018-05-31T04:59:37.924Z,3.03
2018-05-31T05:02:05.522Z,3.20
2018-05-31T05:04:33.871Z,3.60
2018-05-31T05:07:01.470Z,3.37
2018-05-31T05:09:29.055Z,3.10
2018-05-31T05:11:56.675Z,3.87
2018-05-31T05:14:24.257Z,3.03
2018-05-31T05:16:51.853Z,3.00
2018-05-31T05:19:19.444Z,3.30
2018-05-31T05:21:47.050Z,3.20
2018-05-31T05:24:14.661Z,3.00
2018-05-31T05:26:42.268Z,3.97
2018-05-31T05:29:09.839Z,3.53
2018-05-31T05:31:37.439Z,3.50
2018-05-31T05:34:05.027Z,3.50
2018-05-31T05:36:32.633Z,3.70
2018-05-31T05:39:00.243Z,3.67
2018-05-31T05:41:27.837Z,3.37
2018-05-31T05:43:56.192Z,3.93
2018-05-31T05:46:23.802Z,3.60
2018-05-31T05:48:51.382Z,4.10
2018-05-31T05:51:18.990Z,4.30
2018-05-31T05:53:46.579Z,4.00
2018-05-31T05:56:14.946Z,3.80
2018-05-31T05:58:42.535Z,3.33
2018-05-31T06:01:10.125Z,3.50
2018-05-31T06:03:37.710Z,4.23
2018-05-31T06:06:05.388Z,3.53
2018-05-31T06:08:32.966Z,3.53
2018-05-31T06:11:00.588Z,3.17
2018-05-31T06:13:28.164Z,2.47
2018-05-31T06:15:55.739Z,2.60
2018-05-31T06:18:23.353Z,2.63
2018-05-31T06:20:50.927Z,2.90
2018-05-31T06:23:18.537Z,3.03
2018-05-31T06:25:46.131Z,2.83
2018-05-31T06:28:14.504Z,2.60
2018-05-31T06:30:42.851Z,2.90
2018-05-31T06:33:10.456Z,2.70
2018-05-31T06:35:38.039Z,2.93
2018-05-31T06:38:05.631Z,2.37
2018-05-31T06:40:33.268Z,2.40
2018-05-31T06:43:00.937Z,2.93
2018-05-31T06:45:28.443Z,2.57
2018-05-31T06:47:56.034Z,1.90
2018-05-31T06:50:23.592Z,2.47
2018-05-31T06:52:51.209Z,2.23
2018-05-31T06:55:18.829Z,2.10
2018-05-31T06:57:46.403Z,2.70
2018-05-31T07:00:13.971Z,2.50
2018-05-31T07:02:41.558Z,1.90
2018-05-31T07:05:09.143Z,2.00
2018-05-31T07:07:36.731Z,2.23
2018-05-31T07:10:04.327Z,1.83
2018-05-31T07:12:31.923Z,1.87
2018-05-31T07:14:59.500Z,1.90
2018-05-31T07:17:27.071Z,2.40
2018-05-31T07:19:54.661Z,1.70
2018-05-31T07:22:22.227Z,2.33
2018-05-31T07:24:49.818Z,2.40
2018-05-31T07:27:17.408Z,2.30
2018-05-31T07:29:44.991Z,2.20
2018-05-31T07:32:12.562Z,2.20
2018-05-31T07:34:40.163Z,1.90
2018-05-31T07:37:07.732Z,1.87
2018-05-31T07:39:35.327Z,2.43
2018-05-31T07:42:02.911Z,1.90
2018-05-31T07:44:31.271Z,2.90
2018-05-31T07:46:58.839Z,2.07
2018-05-31T07:49:26.433Z,2.40
2018-05-31T07:51:54.007Z,2.50
2018-05-31T07:54:21.591Z,2.77
2018-05-31T07:56:49.168Z,2.43
2018-05-31T07:59:16.759Z,2.77
2018-05-31T08:01:44.319Z,2.63
2018-05-31T08:04:12.756Z,3.37
2018-05-31T08:06:40.318Z,2.60
2018-05-31T08:09:07.943Z,2.47
2018-05-31T08:11:35.498Z,2.53
2018-05-31T08:14:03.111Z,2.80
2018-05-31T08:16:30.679Z,3.30
2018-05-31T08:18:58.268Z,3.50
2018-05-31T08:21:25.858Z,3.10
2018-05-31T08:23:53.492Z,3.43
2018-05-31T08:26:21.063Z,3.57
2018-05-31T08:28:48.621Z,3.97
2018-05-31T08:31:16.243Z,3.50
2018-05-31T08:33:44.578Z,3.77
2018-05-31T08:36:12.174Z,4.00
2018-05-31T08:38:39.761Z,4.47
2018-05-31T08:41:07.350Z,3.80
2018-05-31T08:43:34.905Z,3.90
2018-05-31T08:46:02.492Z,3.90
2018-05-31T08:48:30.058Z,3.33
2018-05-31T08:50:57.712Z,3.57
2018-05-31T08:53:25.263Z,3.10
2018-05-31T08:55:52.853Z,3.97
2018-05-31T08:58:20.418Z,3.93
2018-05-31T09:00:48.800Z,4.33
2018-05-31T09:03:17.140Z,2.97
2018-05-31T09:05:44.725Z,3.50
2018-05-31T09:08:12.303Z,3.40
2018-05-31T09:10:39.903Z,3.30
2018-05-31T09:13:07.467Z,2.93
2018-05-31T09:15:35.059Z,3.17
2018-05-31T09:18:03.389Z,3.70
2018-05-31T09:20:30.978Z,3.17
2018-05-31T09:22:58.539Z,3.17
2018-05-31T09:25:26.126Z,3.30
2018-05-31T09:27:54.459Z,2.60
2018-05-31T09:30:22.055Z,3.10
2018-05-31T09:32:49.623Z,3.20
2018-05-31T09:35:17.217Z,2.80
2018-05-31T09:37:44.797Z,2.90
2018-05-31T09:40:13.151Z,2.80
2018-05-31T09:42:40.714Z,2.73
2018-05-31T09:45:08.286Z,2.93
2018-05-31T09:47:35.879Z,3.17
2018-05-31T09:50:03.446Z,3.07
2018-05-31T09:52:31.799Z,3.20
2018-05-31T09:54:59.375Z,3.37
2018-05-31T09:57:26.968Z,3.60
2018-05-31T09:59:56.806Z,3.40
2018-05-31T10:02:24.416Z,3.30
2018-05-31T10:04:52.889Z,2.67
2018-05-31T10:07:20.499Z,3.20
2018-05-31T10:09:48.065Z,2.50
2018-05-31T10:12:15.653Z,2.73
2018-05-31T10:14:43.214Z,3.00
2018-05-31T10:17:10.871Z,3.07
2018-05-31T10:19:38.515Z,2.90
2018-05-31T10:22:06.887Z,3.53
2018-05-31T10:24:34.522Z,3.07
2018-05-31T10:27:02.108Z,3.77
2018-05-31T10:29:29.676Z,3.40
2018-05-31T10:31:57.263Z,3.37
2018-05-31T10:34:24.832Z,3.83
2018-05-31T10:36:52.440Z,3.43
2018-05-31T10:39:20.004Z,3.93
2018-05-31T10:41:47.607Z,3.90
2018-05-31T10:44:15.186Z,3.67
2018-05-31T10:46:42.754Z,4.20
2018-05-31T10:49:10.363Z,4.73
2018-05-31T10:51:37.935Z,3.47
2018-05-31T10:54:05.514Z,3.70
2018-05-31T10:56:33.833Z,3.90
2018-05-31T10:59:01.424Z,3.73
2018-05-31T11:01:28.995Z,3.40
2018-05-31T11:03:56.587Z,3.60
2018-05-31T11:06:24.150Z,3.77
2018-05-31T11:08:51.751Z,4.27
2018-05-31T11:11:19.318Z,4.27
2018-05-31T11:13:46.911Z,3.70
2018-05-31T11:16:14.470Z,4.00
2018-05-31T11:18:42.058Z,4.80
2018-05-31T11:21:09.625Z,3.60
2018-05-31T11:23:37.347Z,4.43
2018-05-31T11:26:04.917Z,4.90
2018-05-31T11:28:32.539Z,4.47
2018-05-31T11:31:00.107Z,3.83
2018-05-31T11:33:27.709Z,4.30
2018-05-31T11:35:55.282Z,3.73
2018-05-31T11:38:23.047Z,4.60
2018-05-31T11:40:50.611Z,4.60
2018-05-31T11:43:18.205Z,4.77
2018-05-31T11:45:45.778Z,6.30
2018-05-31T11:48:13.368Z,4.27
2018-05-31T11:50:40.931Z,3.80
2018-05-31T11:53:08.546Z,3.77
2018-05-31T11:55:36.118Z,5.20
2018-05-31T11:58:03.680Z,4.57
2018-05-31T12:00:31.275Z,4.63
2018-05-31T12:02:58.851Z,4.57
2018-05-31T12:05:26.444Z,4.70
2018-05-31T12:07:54.008Z,4.57
2018-05-31T12:10:21.607Z,4.50
2018-05-31T12:12:49.180Z,3.70
2018-05-31T12:15:16.770Z,4.47
2018-05-31T12:17:44.336Z,4.10
2018-05-31T12:20:11.932Z,3.77
2018-05-31T12:22:39.502Z,3.83
2018-05-31T12:25:07.132Z,4.20
2018-05-31T12:27:35.468Z,3.10
2018-05-31T12:30:03.063Z,3.20
2018-05-31T12:32:31.404Z,4.17
2018-05-31T12:34:59.004Z,3.63
2018-05-31T12:37:27.343Z,4.10
2018-05-31T12:39:54.934Z,4.13
2018-05-31T12:42:22.497Z,4.10
2018-05-31T12:44:50.105Z,3.90
2018-05-31T12:47:17.674Z,6.00
2018-05-31T12:49:45.267Z,4.60
2018-05-31T12:52:12.835Z,3.90
2018-05-31T12:54:41.197Z,4.33
2018-05-31T12:57:08.777Z,4.53
2018-05-31T12:59:37.131Z,4.50
2018-05-31T13:02:04.703Z,4.20
2018-05-31T13:04:32.299Z,4.20
2018-05-31T13:06:59.859Z,4.70
2018-05-31T13:09:27.428Z,4.23
2018-05-31T13:11:59.665Z,4.60
2018-05-31T13:14:27.227Z,4.57
2018-05-31T13:16:55.606Z,4.83
2018-05-31T13:19:23.945Z,5.73
2018-05-31T13:21:51.538Z,4.47
2018-05-31T13:24:19.896Z,4.60
2018-05-31T13:26:48.291Z,4.30
2018-05-31T13:29:16.628Z,4.40
2018-05-31T13:31:44.222Z,4.60
2018-05-31T13:34:11.801Z,3.97
2018-05-31T13:36:40.156Z,3.40
2018-05-31T13:39:08.487Z,4.57
2018-05-31T13:41:36.067Z,3.67
2018-05-31T13:44:03.636Z,4.53
2018-05-31T13:46:31.225Z,3.67
2018-05-31T13:48:59.551Z,3.27
2018-05-31T13:51:27.155Z,6.23
2018-05-31T13:53:55.495Z,3.37
2018-05-31T13:56:23.087Z,3.30
2018-05-31T13:58:50.660Z,2.30
2018-05-31T14:01:19.015Z,2.60
2018-05-31T14:03:46.582Z,2.03
2018-05-31T14:06:15.132Z,2.83
2018-05-31T14:08:42.792Z,3.17
2018-05-31T14:11:13.256Z,2.70
2018-05-31T14:13:40.896Z,2.30
2018-05-31T14:18:53.680Z,2.40
2018-05-31T14:21:22.131Z,3.10
2018-05-31T14:23:50.463Z,2.70
2018-05-31T14:26:18.041Z,2.20
2018-05-31T14:28:47.144Z,2.80
2018-05-31T14:31:14.719Z,2.53
2018-05-31T14:33:43.088Z,3.40
2018-05-31T14:36:11.437Z,2.27
2018-05-31T14:38:39.029Z,2.70
2018-05-31T14:41:06.602Z,3.20
2018-05-31T14:43:34.950Z,2.57
2018-05-31T14:46:02.514Z,2.60
2018-05-31T14:48:30.098Z,2.50
2018-05-31T14:50:57.659Z,2.90
2018-05-31T14:53:26.054Z,2.60
2018-05-31T14:55:53.639Z,2.10
2018-05-31T14:58:21.226Z,3.40
2018-05-31T15:00:48.800Z,2.00
2018-05-31T15:03:17.162Z,2.40
2018-05-31T15:05:44.743Z,2.10
2018-05-31T15:08:12.325Z,2.80
2018-05-31T15:10:39.897Z,2.20
2018-05-31T15:13:07.487Z,2.40
2018-05-31T15:15:35.050Z,2.03
2018-05-31T15:18:02.683Z,2.23
2018-05-31T15:20:30.257Z,2.50
2018-05-31T15:22:57.857Z,1.90
2018-05-31T15:25:25.573Z,2.57
2018-05-31T15:27:53.817Z,2.07
2018-05-31T15:30:21.737Z,2.20
2018-05-31T15:32:52.250Z,2.07
2018-05-31T15:35:21.492Z,2.10
2018-05-31T15:37:49.862Z,2.03
2018-05-31T15:40:17.435Z,2.40
2018-05-31T15:42:46.003Z,2.67
2018-05-31T15:45:13.590Z,2.47
2018-05-31T15:47:41.155Z,2.53
2018-05-31T15:50:08.766Z,2.83
2018-05-31T15:52:36.347Z,3.10
2018-05-31T15:55:04.703Z,2.03
2018-05-31T15:57:32.272Z,2.13
2018-05-31T15:59:59.858Z,2.13
2018-05-31T16:02:27.432Z,3.40
2018-05-31T16:04:55.035Z,2.07
2018-05-31T16:07:22.593Z,2.00
2018-05-31T16:09:50.186Z,2.07
2018-05-31T16:12:18.527Z,2.80
2018-05-31T16:14:46.120Z,2.57
2018-05-31T16:17:13.691Z,2.70
2018-05-31T16:19:41.299Z,2.63
2018-05-31T16:22:08.871Z,2.40
2018-05-31T16:24:37.460Z,2.33
2018-05-31T16:27:05.037Z,2.60
2018-05-31T16:29:33.391Z,2.40
2018-05-31T16:32:00.957Z,2.60
2018-05-31T16:34:28.547Z,2.17
2018-05-31T16:36:56.112Z,2.50
2018-05-31T16:39:23.698Z,2.60
2018-05-31T16:41:51.259Z,3.00
2018-05-31T16:44:18.846Z,2.40
2018-05-31T16:46:46.420Z,2.23
2018-05-31T16:49:14.019Z,3.07
2018-05-31T16:51:41.610Z,2.30
2018-05-31T16:54:09.962Z,3.60
2018-05-31T16:56:37.529Z,3.40
2018-05-31T16:59:05.122Z,2.70
2018-05-31T17:01:32.698Z,2.40
2018-05-31T17:04:00.284Z,3.00
2018-05-31T17:06:27.847Z,2.43
2018-05-31T17:08:55.447Z,2.50
2018-05-31T17:11:23.007Z,2.43
2018-05-31T17:13:50.580Z,2.67
2018-05-31T17:16:18.190Z,2.50
2018-05-31T17:18:45.747Z,2.23
2018-05-31T17:21:14.147Z,2.40
2018-05-31T17:23:41.959Z,2.50
2018-05-31T17:26:09.550Z,2.33
2018-05-31T17:28:37.122Z,2.20
2018-05-31T17:31:04.714Z,2.70
2018-05-31T17:33:32.275Z,2.30
2018-05-31T17:36:00.724Z,3.00
2018-05-31T17:38:28.321Z,2.60
2018-05-31T17:40:55.930Z,2.40
2018-05-31T17:43:23.499Z,3.13
2018-05-31T17:45:51.097Z,2.40
2018-05-31T17:48:18.666Z,2.60
2018-05-31T17:50:46.265Z,2.50
2018-05-31T17:53:13.843Z,2.30
2018-05-31T17:55:41.431Z,2.40
2018-05-31T17:58:09.011Z,2.17
2018-05-31T18:00:36.612Z,2.47
2018-05-31T18:03:04.171Z,2.33
2018-05-31T18:05:31.759Z,2.50
2018-05-31T18:07:59.332Z,2.20
2018-05-31T18:10:26.910Z,2.13
2018-05-31T18:12:55.239Z,2.20
2018-05-31T18:15:22.829Z,2.50
2018-05-31T18:17:50.400Z,2.30
2018-05-31T18:20:18.021Z,2.40
2018-05-31T18:22:45.598Z,2.63
2018-05-31T18:25:13.193Z,2.17
2018-05-31T18:27:41.538Z,2.50
2018-05-31T18:30:09.146Z,2.90
2018-05-31T18:32:36.727Z,2.60
2018-05-31T18:35:04.795Z,2.30
2018-05-31T18:37:32.783Z,2.13
2018-05-31T18:40:00.975Z,2.50
2018-05-31T18:42:28.634Z,2.63
2018-05-31T18:44:56.309Z,2.87
2018-05-31T18:47:23.981Z,2.77
2018-05-31T18:49:52.647Z,2.73
2018-05-31T18:52:20.244Z,3.50
2018-05-31T18:54:47.828Z,2.50
2018-05-31T18:57:15.796Z,3.47
2018-05-31T18:59:43.453Z,2.80
2018-05-31T19:02:11.036Z,3.30
2018-05-31T19:04:38.598Z,3.10
2018-05-31T19:07:06.658Z,2.80
2018-05-31T19:09:37.205Z,2.20
2018-05-31T19:12:04.848Z,3.07
2018-05-31T19:14:32.672Z,2.60
2018-05-31T19:17:01.050Z,2.40
2018-05-31T19:19:34.947Z,2.90
2018-05-31T19:22:03.312Z,2.73
2018-05-31T19:24:36.477Z,2.43
2018-05-31T19:27:04.114Z,2.60
2018-05-31T19:29:31.678Z,2.67
2018-05-31T19:31:59.735Z,3.03
2018-05-31T19:34:28.310Z,4.50
2018-05-31T19:37:01.519Z,3.27
2018-05-31T19:39:29.085Z,3.23
2018-05-31T19:41:56.678Z,2.77
2018-05-31T19:44:29.879Z,3.00
2018-05-31T19:46:57.458Z,3.47
2018-05-31T19:49:25.911Z,3.67
2018-05-31T19:51:59.403Z,3.60
2018-05-31T19:54:28.146Z,2.87
2018-05-31T19:56:55.762Z,3.50
2018-05-31T19:59:28.859Z,3.47
2018-05-31T20:02:04.467Z,3.43
2018-05-31T20:04:32.096Z,3.27
2018-05-31T20:06:59.786Z,3.63
2018-05-31T20:09:27.359Z,3.50
2018-05-31T20:11:54.947Z,3.27
2018-05-31T20:14:22.542Z,4.20
2018-05-31T20:16:50.887Z,3.50
2018-05-31T20:19:18.464Z,3.43
2018-05-31T20:21:46.065Z,3.80
2018-05-31T20:24:13.631Z,3.43
2018-05-31T20:26:41.224Z,3.43
2018-05-31T20:29:09.566Z,3.37
2018-05-31T20:31:37.172Z,3.50
2018-05-31T20:34:05.200Z,3.30
2018-05-31T20:36:32.768Z,3.80
2018-05-31T20:39:00.381Z,3.60
2018-05-31T20:41:27.974Z,3.00
2018-05-31T20:43:55.569Z,3.57
2018-05-31T20:46:23.899Z,3.47
2018-05-31T20:48:51.496Z,3.33
2018-05-31T20:51:19.063Z,2.97
2018-05-31T20:53:48.349Z,4.27
2018-05-31T20:56:15.919Z,4.20
2018-05-31T20:58:43.501Z,4.17
2018-05-31T21:01:11.071Z,5.73
2018-05-31T21:03:38.664Z,3.43
2018-05-31T21:06:06.231Z,4.00
2018-05-31T21:08:33.824Z,3.53
2018-05-31T21:11:01.396Z,3.37
2018-05-31T21:13:29.005Z,4.07
2018-05-31T21:15:56.568Z,3.20
2018-05-31T21:18:24.155Z,3.83
2018-05-31T21:20:51.731Z,4.40
2018-05-31T21:23:20.088Z,4.40
2018-05-31T21:25:47.654Z,4.30
2018-05-31T21:28:15.258Z,4.60
2018-05-31T21:30:42.850Z,3.77
2018-05-31T21:33:10.434Z,3.80
2018-05-31T21:35:38.853Z,2.43
2018-05-31T21:38:06.387Z,2.63
2018-05-31T21:40:34.726Z,2.03
2018-05-31T21:43:02.294Z,1.80
2018-05-31T21:45:29.888Z,1.40
2018-05-31T21:47:57.446Z,1.43
2018-05-31T21:50:25.046Z,1.40
2018-05-31T21:52:52.618Z,1.67
2018-05-31T21:55:20.208Z,1.57
2018-05-31T21:57:48.542Z,1.33
2018-05-31T22:00:41.632Z,1.37
2018-05-31T22:03:09.222Z,1.23
2018-05-31T22:05:36.828Z,5.03
2018-05-31T22:08:04.372Z,2.80
2018-05-31T22:10:31.963Z,2.23
2018-05-31T22:12:59.522Z,2.90
2018-05-31T22:15:27.108Z,2.60
2018-05-31T22:17:55.458Z,1.70
2018-05-31T22:20:23.048Z,2.10
2018-05-31T22:22:50.615Z,1.57
2018-05-31T22:25:18.207Z,1.90
2018-05-31T22:27:46.568Z,1.83
2018-05-31T22:30:14.171Z,1.50
2018-05-31T22:32:41.755Z,2.30
2018-05-31T22:35:09.348Z,1.80
2018-05-31T22:37:36.920Z,1.70
2018-05-31T22:40:04.528Z,1.33
2018-05-31T22:42:32.096Z,1.80
2018-05-31T22:45:01.298Z,1.83
2018-05-31T22:47:28.866Z,1.57
2018-05-31T22:49:56.460Z,1.50
2018-05-31T22:52:24.024Z,2.17
2018-05-31T22:54:51.626Z,1.80
2018-05-31T22:57:19.200Z,1.50
2018-05-31T22:59:46.804Z,1.93
2018-05-31T23:02:14.374Z,2.00
2018-05-31T23:04:41.967Z,1.93
2018-05-31T23:07:10.322Z,2.30
2018-05-31T23:09:37.956Z,1.80
2018-05-31T23:12:05.537Z,2.50
2018-05-31T23:14:33.131Z,1.60
2018-05-31T23:17:00.713Z,1.63
2018-05-31T23:19:28.310Z,2.23
2018-05-31T23:21:55.878Z,2.03
2018-05-31T23:24:24.987Z,2.00
2018-05-31T23:26:53.312Z,2.10
2018-05-31T23:29:20.919Z,2.60
2018-05-31T23:31:49.278Z,2.00
2018-05-31T23:34:16.860Z,2.27
2018-05-31T23:36:44.449Z,1.90
2018-05-31T23:39:12.083Z,2.70
2018-05-31T23:41:39.675Z,2.47
2018-05-31T23:44:07.260Z,2.87
2018-05-31T23:46:34.855Z,2.87
2018-05-31T23:49:02.438Z,2.10
2018-05-31T23:51:30.052Z,2.80
2018-05-31T23:53:57.615Z,2.07
2018-05-31T23:56:25.207Z,3.13
2018-05-31T23:58:52.775Z,2.90
